Elton, Wisconsin
Current Conditions -  °F | °C
As of 1:15 PM on Thursday 30 Oct 2014 (Local Time) from KAIG Reporting Station
Overcast Overcast  
Wind Chill: 37°   Ceiling: 1900
Heat Index: 42°   Visibility: 10mi
Dew Point: 34°   Wind: 8mph
Humidity: 75%   Direction: 320°NW
Pressure: 30.02"   Gusts: NA
Location:  45.17°N, 88.89°W
Report Text: KAIG 301815Z AUTO 32007KT 10SM BKN019 BKN080 OVC095 05/01 A3002 RMK AO2 T00540013
Loading
Personal Weather Stations






























Interactive Weather Map
Tropical Storm Tracking
New forecast layout! Learn more

10-Day Weather Forecast

Advertisements
Track Severe Weather on mobile